This is the latest recevied weather packets stored in our database for station/object W1CAT. If no packets are shown the sender has not sent any weather packets the latest 10 day(s).
| Time | Temp. | Humidity | Pressure | Rain* | Wind** | Luminosity | Snow |
|---|---|---|---|---|---|---|---|
| 1777984666 | 1.11° C | 84% | - | 0 mm | - | - | - |
| 1777984363 | 1.11° C | 86% | - | 0 mm | - | - | - |
| 1777984060 | 1.11° C | 86% | - | 0 mm | - | - | - |
| 1777982847 | 0.56° C | 86% | - | 0 mm | - | - | - |
| 1777982543 | 0.56° C | 85% | - | 0 mm | - | - | - |
| 1777981029 | 1.11° C | 83% | - | 0 mm | - | - | - |
| 1777979819 | 1.11° C | 84% | - | 0 mm | - | - | - |
| 1777979515 | 1.11° C | 83% | - | 0 mm | - | - | - |
| 1777977999 | 2.22° C | 79% | - | 0 mm | - | - | - |
| 1777977392 | 2.22° C | 80% | - | 0 mm | - | - | - |
| 1777976485 | 2.22° C | 82% | - | 0 mm | - | - | - |
| 1777976183 | 2.78° C | 83% | - | 0 mm | - | - | - |
| 1777975879 | 2.22° C | 86% | - | 0 mm | - | - | - |
| 1777975576 | 2.22° C | 85% | - | 0 mm | - | - | - |
| 1777975273 | 2.22° C | 86% | - | 0 mm | - | - | - |
| 1777974969 | 2.22° C | 86% | - | 0 mm | - | - | - |
| 1777974666 | 2.22° C | 84% | - | 0 mm | - | - | - |
| 1777973754 | 2.22° C | 85% | - | 0 mm | - | - | - |
| 1777973452 | 2.22° C | 84% | - | 0 mm | - | - | - |
| 1777973149 | 2.78° C | 82% | - | 0 mm | - | - | - |
| 1777972848 | 2.78° C | 82% | - | 0 mm | - | - | - |
| 1777972544 | 2.78° C | 81% | - | 0 mm | - | - | - |
| 1777972243 | 3.33° C | 81% | - | 0 mm | - | - | - |
| 1777971940 | 3.89° C | 80% | - | 0 mm | - | - | - |
| 1777971638 | 3.89° C | 80% | - | 0 mm | - | - | - |
* Rain latest hour (hover to see other rain measurements)
** Current wind speed in m/s (hover to see current wind gust speed)